Time;durP1;ratioP1;P1;durP2;ratioP2;P2;SDS_P1;SDS_P2;PMS_P1;PMS_P2;Temp;Humidity;BMP_temperature;BMP_pressure;BME280_temperature;BME280_humidity;BME280_pressure;Samples;Min_cycle;Max_cycle;Signal;HPM_P1;HPM_P2
2021/06/24 00:01:07;;;;;;;;;;;15.00;99.90;;;;;;5073936;28;19966;-74
2021/06/24 00:03:36;;;;;;;;;;;15.10;99.90;;;;;;5075393;28;19914;-73
2021/06/24 00:06:03;;;;;;;;;;;15.10;99.90;;;;;;5075436;28;19971;-73
2021/06/24 00:08:31;;;;;;;;;;;15.10;99.90;;;;;;5075433;28;19974;-73
2021/06/24 00:10:59;;;;;;;;;;;15.10;99.90;;;;;;5075235;28;19919;-73
2021/06/24 00:13:26;;;;;;;;;;;15.10;99.90;;;;;;5075085;28;20030;-73
2021/06/24 00:15:53;;;;;;;;;;;15.10;99.90;;;;;;5074701;28;19998;-73
2021/06/24 00:18:20;;;;;;;;;;;15.20;99.90;;;;;;5075221;28;19915;-72
2021/06/24 00:20:48;;;;;;;;;;;15.20;99.90;;;;;;5075145;28;19951;-72
2021/06/24 00:23:15;;;;;;;;;;;15.30;99.90;;;;;;5075067;28;19909;-73
2021/06/24 00:25:41;;;;;;;;;;;15.30;99.90;;;;;;5074620;28;19913;-73
2021/06/24 00:28:10;;;;;;;;;;;15.30;99.90;;;;;;5074873;28;19908;-73
2021/06/24 00:30:37;;;;;;;;;;;15.40;99.90;;;;;;5074874;28;19961;-74
2021/06/24 00:33:04;;;;;;;;;;;15.50;99.90;;;;;;5075028;28;19953;-72
2021/06/24 00:35:31;;;;;;;;;;;15.60;99.90;;;;;;5074681;28;19917;-72
2021/06/24 00:37:58;;;;;;;;;;;15.60;99.90;;;;;;5074613;28;19963;-73
2021/06/24 00:40:24;;;;;;;;;;;15.70;99.90;;;;;;5074824;28;19920;-73
2021/06/24 00:42:51;;;;;;;;;;;15.80;99.90;;;;;;5074795;28;19908;-72
2021/06/24 00:45:18;;;;;;;;;;;15.80;99.90;;;;;;5074574;28;19908;-72
2021/06/24 00:47:45;;;;;;;;;;;15.80;99.90;;;;;;5068512;28;19913;-73
2021/06/24 00:50:13;;;;;;;;;;;15.80;99.90;;;;;;5070281;28;19916;-72
2021/06/24 00:52:39;;;;;;;;;;;15.90;99.90;;;;;;5073933;28;19940;-73
2021/06/24 00:55:06;;;;;;;;;;;15.90;99.90;;;;;;5073716;28;20263;-72
2021/06/24 00:57:33;;;;;;;;;;;16.00;99.90;;;;;;5073544;28;19909;-72
2021/06/24 01:00:02;;;;;;;;;;;16.00;99.90;;;;;;5073583;28;19962;-72
2021/06/24 01:02:29;;;;;;;;;;;16.00;99.90;;;;;;5073714;28;19916;-73
2021/06/24 01:04:56;;;;;;;;;;;16.00;99.90;;;;;;5073577;28;19908;-72
2021/06/24 01:07:23;;;;;;;;;;;16.00;99.90;;;;;;5074130;28;19908;-72
2021/06/24 01:09:50;;;;;;;;;;;16.10;99.90;;;;;;5074472;28;20675;-72
2021/06/24 01:12:17;;;;;;;;;;;16.10;99.90;;;;;;5073865;28;20374;-72
2021/06/24 01:14:44;;;;;;;;;;;16.20;99.90;;;;;;5073941;28;19921;-73
2021/06/24 01:17:10;;;;;;;;;;;16.20;99.90;;;;;;5074157;28;20437;-73
2021/06/24 01:19:37;;;;;;;;;;;16.30;99.90;;;;;;5073912;28;19955;-72
2021/06/24 01:22:04;;;;;;;;;;;16.30;99.90;;;;;;5074012;28;19909;-72
2021/06/24 01:24:30;;;;;;;;;;;16.30;99.90;;;;;;5074126;28;20003;-72
2021/06/24 01:26:57;;;;;;;;;;;16.30;99.90;;;;;;5074531;28;19993;-72
2021/06/24 01:29:24;;;;;;;;;;;16.30;99.90;;;;;;5074701;28;20416;-72
2021/06/24 01:31:50;;;;;;;;;;;16.30;99.90;;;;;;5074222;28;20393;-71
2021/06/24 01:34:17;;;;;;;;;;;16.30;99.90;;;;;;5074207;28;19912;-73
2021/06/24 01:36:44;;;;;;;;;;;16.40;99.90;;;;;;5073873;28;19969;-72
2021/06/24 01:39:13;;;;;;;;;;;16.40;99.90;;;;;;5073751;28;20325;-73
2021/06/24 01:41:40;;;;;;;;;;;16.40;99.90;;;;;;5073006;28;20381;-73
2021/06/24 01:44:07;;;;;;;;;;;16.50;99.90;;;;;;5074687;28;19912;-72
2021/06/24 01:46:34;;;;;;;;;;;16.60;99.90;;;;;;5073813;28;19932;-73
2021/06/24 01:49:21;;;;;;;;;;;16.80;99.90;;;;;;5073529;28;19918;-72
2021/06/24 01:51:49;;;;;;;;;;;17.20;99.90;;;;;;5073354;28;19999;-72
2021/06/24 01:54:21;;;;;;;;;;;17.40;99.90;;;;;;5073625;28;19908;-72
2021/06/24 01:56:48;;;;;;;;;;;17.70;99.90;;;;;;5073550;28;19920;-72
2021/06/24 01:59:16;;;;;;;;;;;17.70;99.90;;;;;;5073336;28;19951;-72
2021/06/24 02:01:43;;;;;;;;;;;17.80;99.90;;;;;;5072082;28;19908;-73
2021/06/24 02:04:10;;;;;;;;;;;17.90;99.90;;;;;;5072184;28;19916;-72
2021/06/24 02:06:37;;;;;;;;;;;17.90;99.90;;;;;;5073397;28;20381;-72
2021/06/24 02:09:05;;;;;;;;;;;18.00;99.90;;;;;;5073312;28;20045;-73
2021/06/24 02:11:32;;;;;;;;;;;18.20;99.90;;;;;;5068603;28;20322;-73
2021/06/24 02:13:59;;;;;;;;;;;18.20;99.90;;;;;;5063236;28;19930;-73
2021/06/24 02:16:26;;;;;;;;;;;18.30;99.90;;;;;;5072119;28;19917;-73
2021/06/24 02:18:52;;;;;;;;;;;18.40;99.90;;;;;;5072538;28;19908;-73
2021/06/24 02:21:19;;;;;;;;;;;18.50;99.90;;;;;;5072409;28;19908;-72
2021/06/24 02:23:46;;;;;;;;;;;18.70;99.90;;;;;;5071740;28;19908;-72
2021/06/24 02:26:12;;;;;;;;;;;18.70;99.90;;;;;;5073173;28;19916;-73
2021/06/24 02:28:39;;;;;;;;;;;18.60;99.90;;;;;;5073202;28;19913;-72
2021/06/24 02:31:06;;;;;;;;;;;18.50;99.90;;;;;;5073234;28;20424;-71
2021/06/24 02:33:33;;;;;;;;;;;18.60;99.90;;;;;;5072850;28;19979;-71
2021/06/24 02:36:00;;;;;;;;;;;18.60;99.90;;;;;;5072979;28;19912;-71
2021/06/24 02:38:27;;;;;;;;;;;18.60;99.90;;;;;;5072983;28;20351;-71
2021/06/24 02:40:53;;;;;;;;;;;18.50;99.90;;;;;;5072734;28;19948;-71
2021/06/24 02:43:20;;;;;;;;;;;18.60;99.90;;;;;;5072887;28;19966;-71
2021/06/24 02:45:47;;;;;;;;;;;18.60;99.90;;;;;;5072635;28;19913;-70
2021/06/24 02:48:13;;;;;;;;;;;18.70;99.90;;;;;;5072857;28;19909;-70
2021/06/24 02:50:43;;;;;;;;;;;18.80;99.90;;;;;;5072504;28;19909;-72
2021/06/24 02:53:10;;;;;;;;;;;19.00;99.90;;;;;;5072401;28;19916;-72
2021/06/24 02:55:37;;;;;;;;;;;19.20;99.90;;;;;;5072444;28;19975;-73
2021/06/24 02:58:03;;;;;;;;;;;19.30;99.90;;;;;;5072994;28;19908;-72
2021/06/24 03:00:30;;;;;;;;;;;19.50;99.90;;;;;;5071709;28;20377;-73
2021/06/24 03:02:57;;;;;;;;;;;19.60;99.90;;;;;;5072823;28;19920;-71
2021/06/24 03:05:23;;;;;;;;;;;19.50;99.90;;;;;;5072617;28;20008;-71
2021/06/24 03:07:50;;;;;;;;;;;19.40;99.90;;;;;;5071390;28;20285;-71
2021/06/24 03:10:22;;;;;;;;;;;19.30;99.90;;;;;;5073042;28;20576;-71
2021/06/24 03:12:48;;;;;;;;;;;19.20;99.90;;;;;;5073115;28;19959;-71
2021/06/24 03:15:15;;;;;;;;;;;19.10;99.90;;;;;;5073036;28;19916;-70
2021/06/24 03:17:42;;;;;;;;;;;19.10;99.90;;;;;;5071201;28;20286;-71
2021/06/24 03:20:10;;;;;;;;;;;19.20;99.90;;;;;;5072673;28;19951;-71
2021/06/24 03:22:37;;;;;;;;;;;19.40;99.90;;;;;;5072761;28;20275;-72
2021/06/24 03:25:07;;;;;;;;;;;19.30;99.90;;;;;;5072782;28;19942;-70
2021/06/24 03:27:34;;;;;;;;;;;19.20;99.90;;;;;;5072883;28;19970;-71
2021/06/24 03:30:01;;;;;;;;;;;19.30;99.90;;;;;;5072780;28;20227;-72
2021/06/24 03:32:27;;;;;;;;;;;19.50;99.90;;;;;;5071824;28;19923;-71
2021/06/24 03:34:54;;;;;;;;;;;19.50;99.90;;;;;;5072598;28;19915;-71
2021/06/24 03:37:21;;;;;;;;;;;19.50;99.90;;;;;;5075789;28;19924;-72
2021/06/24 03:39:48;;;;;;;;;;;19.50;99.90;;;;;;5075667;28;19997;-72
2021/06/24 03:42:15;;;;;;;;;;;19.60;99.90;;;;;;5075713;28;19916;-73
2021/06/24 03:44:42;;;;;;;;;;;19.50;99.90;;;;;;5075645;28;19912;-73
2021/06/24 03:47:09;;;;;;;;;;;19.60;99.90;;;;;;5075826;28;19909;-73
2021/06/24 03:49:35;;;;;;;;;;;19.70;99.90;;;;;;5075589;28;19908;-73
2021/06/24 03:52:02;;;;;;;;;;;19.70;99.90;;;;;;5075627;28;19908;-71
2021/06/24 03:54:29;;;;;;;;;;;19.60;99.90;;;;;;5075662;28;19908;-73
2021/06/24 03:56:55;;;;;;;;;;;19.60;99.90;;;;;;5075578;28;20040;-72
2021/06/24 03:59:22;;;;;;;;;;;19.80;99.90;;;;;;5075481;28;19908;-73
2021/06/24 04:01:49;;;;;;;;;;;19.90;99.90;;;;;;5075425;28;19909;-71
2021/06/24 04:04:16;;;;;;;;;;;20.00;99.90;;;;;;5075401;28;19908;-73
2021/06/24 04:06:42;;;;;;;;;;;20.00;99.90;;;;;;5075270;28;19908;-73
2021/06/24 04:09:09;;;;;;;;;;;19.90;99.90;;;;;;5075406;28;19951;-72
2021/06/24 04:11:36;;;;;;;;;;;20.00;99.90;;;;;;5075050;28;19908;-73
2021/06/24 04:14:02;;;;;;;;;;;20.00;99.90;;;;;;5074963;28;19925;-71
2021/06/24 04:16:29;;;;;;;;;;;19.90;99.90;;;;;;5075065;28;19939;-72
2021/06/24 04:18:56;;;;;;;;;;;19.70;99.90;;;;;;5075293;28;19908;-72
2021/06/24 04:21:22;;;;;;;;;;;19.60;99.90;;;;;;5075312;28;19909;-71
2021/06/24 04:23:49;;;;;;;;;;;19.50;99.90;;;;;;5074892;28;19950;-71
2021/06/24 04:26:16;;;;;;;;;;;19.40;99.90;;;;;;5074949;28;20255;-73
2021/06/24 04:28:43;;;;;;;;;;;19.40;99.90;;;;;;5073604;28;19909;-73
2021/06/24 04:31:10;;;;;;;;;;;19.40;99.90;;;;;;5075016;28;19909;-72
2021/06/24 04:33:36;;;;;;;;;;;19.30;99.90;;;;;;5074766;28;19935;-73
2021/06/24 04:36:03;;;;;;;;;;;19.30;99.90;;;;;;5074739;28;19916;-72
2021/06/24 04:38:30;;;;;;;;;;;19.40;99.90;;;;;;5074774;28;20277;-72
2021/06/24 04:40:57;;;;;;;;;;;19.50;99.90;;;;;;5074812;28;20363;-73
2021/06/24 04:43:23;;;;;;;;;;;19.50;99.90;;;;;;5074543;28;19915;-72
2021/06/24 04:45:50;;;;;;;;;;;19.40;99.90;;;;;;5073864;28;20365;-71
2021/06/24 04:48:17;;;;;;;;;;;19.40;99.90;;;;;;5078421;28;19919;-71
2021/06/24 04:50:43;;;;;;;;;;;19.30;99.90;;;;;;5077796;28;19955;-73
2021/06/24 04:53:10;;;;;;;;;;;19.20;99.90;;;;;;5077184;28;19909;-73
2021/06/24 04:55:39;;;;;;;;;;;19.20;99.90;;;;;;5074938;28;19958;-71
2021/06/24 04:58:07;;;;;;;;;;;19.10;99.90;;;;;;5074793;28;19947;-72
2021/06/24 05:00:34;;;;;;;;;;;19.00;99.90;;;;;;5074452;28;19909;-71
2021/06/24 05:03:02;;;;;;;;;;;18.90;99.90;;;;;;5074622;28;20366;-72
2021/06/24 05:05:28;;;;;;;;;;;18.90;99.90;;;;;;5074307;28;19908;-72
2021/06/24 05:07:56;;;;;;;;;;;18.80;99.90;;;;;;5074350;28;19908;-72
2021/06/24 05:10:23;;;;;;;;;;;18.80;99.90;;;;;;5074313;28;20378;-72
2021/06/24 05:12:50;;;;;;;;;;;18.70;99.90;;;;;;5074117;28;20014;-72
2021/06/24 05:15:17;;;;;;;;;;;18.60;99.90;;;;;;5074183;28;19916;-71
2021/06/24 05:17:43;;;;;;;;;;;18.70;99.90;;;;;;5073884;28;19920;-71
2021/06/24 05:20:10;;;;;;;;;;;18.70;99.90;;;;;;5073923;28;19908;-72
2021/06/24 05:22:37;;;;;;;;;;;18.80;99.90;;;;;;5074013;28;19920;-72
2021/06/24 05:25:04;;;;;;;;;;;18.70;99.90;;;;;;5073566;28;19930;-73
2021/06/24 05:27:31;;;;;;;;;;;18.80;99.90;;;;;;5073116;28;19989;-71
2021/06/24 05:29:58;;;;;;;;;;;18.80;99.90;;;;;;5073733;28;19919;-71
2021/06/24 05:32:24;;;;;;;;;;;18.80;99.90;;;;;;5073697;28;19909;-71
2021/06/24 05:34:51;;;;;;;;;;;18.80;99.90;;;;;;5073951;28;19915;-71
2021/06/24 05:37:18;;;;;;;;;;;18.70;99.90;;;;;;5073656;28;19920;-70
2021/06/24 05:39:44;;;;;;;;;;;18.70;99.90;;;;;;5073681;28;19909;-72
2021/06/24 05:42:11;;;;;;;;;;;18.70;99.90;;;;;;5073672;28;20003;-70
2021/06/24 05:44:38;;;;;;;;;;;18.70;99.90;;;;;;5073191;28;19939;-72
2021/06/24 05:47:05;;;;;;;;;;;18.70;99.90;;;;;;5073608;28;19908;-71
2021/06/24 05:49:31;;;;;;;;;;;18.80;99.90;;;;;;5073341;28;20393;-71
2021/06/24 05:51:58;;;;;;;;;;;18.90;99.90;;;;;;5073534;28;20446;-70
2021/06/24 05:54:24;;;;;;;;;;;18.90;99.90;;;;;;5073326;28;19908;-69
2021/06/24 05:56:51;;;;;;;;;;;18.80;99.90;;;;;;5073180;28;19923;-70
2021/06/24 05:59:18;;;;;;;;;;;18.80;99.90;;;;;;5073059;28;20395;-70
2021/06/24 06:01:47;;;;;;;;;;;18.70;99.90;;;;;;5072841;28;20001;-71
2021/06/24 06:04:15;;;;;;;;;;;18.70;99.90;;;;;;5073143;28;19909;-70
2021/06/24 06:06:42;;;;;;;;;;;18.70;99.90;;;;;;5073118;28;19909;-71
2021/06/24 06:09:09;;;;;;;;;;;18.70;99.90;;;;;;5073114;28;19977;-70
2021/06/24 06:11:36;;;;;;;;;;;18.70;99.90;;;;;;5073047;28;20003;-71
2021/06/24 06:14:03;;;;;;;;;;;18.70;99.90;;;;;;5070539;28;19921;-70
2021/06/24 06:16:29;;;;;;;;;;;18.70;99.90;;;;;;5072490;28;20011;-69
2021/06/24 06:18:56;;;;;;;;;;;18.70;99.90;;;;;;5072751;28;20331;-70
2021/06/24 06:21:23;;;;;;;;;;;18.70;99.90;;;;;;5073130;28;19916;-70
2021/06/24 06:23:50;;;;;;;;;;;18.70;99.90;;;;;;5072784;28;20353;-70
2021/06/24 06:26:17;;;;;;;;;;;18.70;99.90;;;;;;5073213;28;19924;-69
2021/06/24 06:28:43;;;;;;;;;;;18.60;99.90;;;;;;5071642;28;19962;-69
2021/06/24 06:31:10;;;;;;;;;;;18.50;99.90;;;;;;5073134;28;19916;-70
2021/06/24 06:33:37;;;;;;;;;;;18.40;99.90;;;;;;5072863;28;19952;-70
2021/06/24 06:36:04;;;;;;;;;;;18.40;99.90;;;;;;5073033;28;19917;-70
2021/06/24 06:38:31;;;;;;;;;;;18.30;99.90;;;;;;5072893;28;20004;-70
2021/06/24 06:40:58;;;;;;;;;;;18.30;99.90;;;;;;5072984;28;19914;-71
2021/06/24 06:43:25;;;;;;;;;;;18.20;99.90;;;;;;5072767;28;19956;-71
2021/06/24 06:45:52;;;;;;;;;;;18.20;99.90;;;;;;5072651;28;19915;-71
2021/06/24 06:48:19;;;;;;;;;;;18.20;99.90;;;;;;5073013;28;19908;-71
2021/06/24 06:50:46;;;;;;;;;;;18.10;99.90;;;;;;5072816;28;19908;-70
2021/06/24 06:53:12;;;;;;;;;;;18.10;99.90;;;;;;5071235;28;20004;-70
2021/06/24 06:55:39;;;;;;;;;;;18.10;99.90;;;;;;5072374;28;19913;-69
2021/06/24 06:58:06;;;;;;;;;;;18.10;99.90;;;;;;5072591;28;19912;-70
2021/06/24 07:00:34;;;;;;;;;;;18.00;99.90;;;;;;5072944;28;19908;-69
2021/06/24 07:03:00;;;;;;;;;;;18.10;99.90;;;;;;5072641;28;20042;-69
2021/06/24 07:05:27;;;;;;;;;;;18.00;99.90;;;;;;5072378;28;19920;-69
2021/06/24 07:07:54;;;;;;;;;;;18.00;99.90;;;;;;5072496;28;19913;-69
2021/06/24 07:10:20;;;;;;;;;;;18.00;99.90;;;;;;5074802;28;19912;-70
2021/06/24 07:12:47;;;;;;;;;;;18.00;99.90;;;;;;5074767;28;19982;-70
2021/06/24 07:15:14;;;;;;;;;;;17.90;99.90;;;;;;5076603;28;19958;-70
2021/06/24 07:17:41;;;;;;;;;;;17.90;99.90;;;;;;5076429;28;19916;-73
2021/06/24 07:20:08;;;;;;;;;;;17.80;99.90;;;;;;5076387;28;19909;-70
2021/06/24 07:22:35;;;;;;;;;;;17.80;99.90;;;;;;5076233;28;19977;-69
2021/06/24 07:25:02;;;;;;;;;;;17.70;99.90;;;;;;5076242;28;19909;-69
2021/06/24 07:27:29;;;;;;;;;;;17.60;99.90;;;;;;5076061;28;19961;-70
2021/06/24 07:29:56;;;;;;;;;;;17.70;99.90;;;;;;5075986;28;20330;-69
2021/06/24 07:32:22;;;;;;;;;;;17.50;99.90;;;;;;5076234;28;20077;-70
2021/06/24 07:34:49;;;;;;;;;;;17.50;99.90;;;;;;5076110;28;19909;-69
2021/06/24 07:37:16;;;;;;;;;;;17.50;99.90;;;;;;5075863;28;19917;-70
2021/06/24 07:39:43;;;;;;;;;;;17.50;99.90;;;;;;5074626;28;19914;-70
2021/06/24 07:42:09;;;;;;;;;;;17.50;99.90;;;;;;5073571;28;19909;-70
2021/06/24 07:44:36;;;;;;;;;;;17.50;99.90;;;;;;5073809;28;20290;-71
2021/06/24 07:47:03;;;;;;;;;;;17.60;99.90;;;;;;5072396;28;19912;-72
2021/06/24 07:49:30;;;;;;;;;;;17.50;99.90;;;;;;5073713;28;19934;-71
2021/06/24 07:51:56;;;;;;;;;;;17.50;99.90;;;;;;5073619;28;19913;-72
2021/06/24 07:54:23;;;;;;;;;;;17.50;99.90;;;;;;5073290;28;20251;-70
2021/06/24 07:56:50;;;;;;;;;;;17.60;99.90;;;;;;5073594;28;19916;-70
2021/06/24 07:59:16;;;;;;;;;;;17.50;99.90;;;;;;5073484;28;19915;-72
2021/06/24 08:01:43;;;;;;;;;;;17.50;99.90;;;;;;5073284;28;19909;-69
2021/06/24 08:04:10;;;;;;;;;;;17.50;99.90;;;;;;5073432;28;20282;-70
2021/06/24 08:06:37;;;;;;;;;;;17.50;99.90;;;;;;5073357;28;19938;-70
2021/06/24 08:09:05;;;;;;;;;;;17.50;99.90;;;;;;5073677;28;19912;-71
2021/06/24 08:11:32;;;;;;;;;;;17.40;99.90;;;;;;5073627;28;19915;-72
2021/06/24 08:13:59;;;;;;;;;;;17.30;99.90;;;;;;5072665;28;20329;-72
2021/06/24 08:16:30;;;;;;;;;;;17.20;99.90;;;;;;5073209;28;19921;-71
2021/06/24 08:18:57;;;;;;;;;;;17.10;99.90;;;;;;5069963;28;19913;-71
2021/06/24 08:21:24;;;;;;;;;;;17.10;99.90;;;;;;5051868;28;20055;-71
2021/06/24 08:23:51;;;;;;;;;;;17.10;99.90;;;;;;5052758;28;20003;-71
2021/06/24 08:26:18;;;;;;;;;;;17.00;99.90;;;;;;5052371;28;20016;-71
2021/06/24 08:28:45;;;;;;;;;;;17.00;99.90;;;;;;5052859;28;19912;-72
2021/06/24 08:31:11;;;;;;;;;;;17.00;99.90;;;;;;5052683;28;20021;-72
2021/06/24 08:33:38;;;;;;;;;;;16.90;99.90;;;;;;5052396;28;20374;-71
2021/06/24 08:36:05;;;;;;;;;;;16.90;99.90;;;;;;5052593;28;19913;-71
2021/06/24 08:38:32;;;;;;;;;;;16.90;99.90;;;;;;5052866;28;19916;-71
2021/06/24 08:40:59;;;;;;;;;;;16.90;99.90;;;;;;5052117;28;20062;-72
2021/06/24 08:43:26;;;;;;;;;;;16.90;99.90;;;;;;5052311;28;19909;-71
2021/06/24 08:45:56;;;;;;;;;;;16.90;99.90;;;;;;5052251;28;20005;-70
2021/06/24 08:48:24;;;;;;;;;;;17.00;99.90;;;;;;5052701;28;19908;-70
2021/06/24 08:50:51;;;;;;;;;;;17.00;99.90;;;;;;5051191;28;20299;-71
2021/06/24 08:53:19;;;;;;;;;;;17.00;99.90;;;;;;5052503;28;20294;-70
2021/06/24 08:55:47;;;;;;;;;;;17.00;99.90;;;;;;5051636;28;20394;-69
2021/06/24 08:58:14;;;;;;;;;;;17.00;99.90;;;;;;5051468;28;19913;-69
2021/06/24 09:00:40;;;;;;;;;;;17.00;99.90;;;;;;5051878;28;19909;-70
2021/06/24 09:03:18;;;;;;;;;;;17.10;99.90;;;;;;5052195;28;19916;-70
2021/06/24 09:05:51;;;;;;;;;;;17.00;99.90;;;;;;5051499;28;19915;-69
2021/06/24 09:08:36;;;;;;;;;;;17.10;99.90;;;;;;5054143;28;19913;-69
2021/06/24 09:11:22;;;;;;;;;;;17.10;99.90;;;;;;5053722;28;19996;-70
2021/06/24 09:14:10;;;;;;;;;;;17.10;99.90;;;;;;5053646;28;19921;-69
2021/06/24 09:16:38;;;;;;;;;;;17.10;99.90;;;;;;5053925;28;20014;-70
2021/06/24 09:19:24;;;;;;;;;;;17.10;99.90;;;;;;5053945;28;19913;-70
2021/06/24 09:21:58;;;;;;;;;;;17.10;99.90;;;;;;5053748;28;20291;-69
2021/06/24 09:24:29;;;;;;;;;;;17.10;99.90;;;;;;5053295;28;20003;-69
2021/06/24 09:26:57;;;;;;;;;;;17.00;99.90;;;;;;5053824;28;19939;-71
2021/06/24 09:29:24;;;;;;;;;;;17.00;99.90;;;;;;5053486;28;19909;-68
2021/06/24 09:31:52;;;;;;;;;;;16.90;99.90;;;;;;5053327;28;19913;-70
2021/06/24 09:34:19;;;;;;;;;;;16.80;99.90;;;;;;5053553;28;20395;-71
2021/06/24 09:36:48;;;;;;;;;;;16.80;99.90;;;;;;5053666;28;20012;-71
2021/06/24 09:39:27;;;;;;;;;;;16.70;99.90;;;;;;5053111;28;19915;-72
2021/06/24 09:41:58;;;;;;;;;;;16.70;99.90;;;;;;5053318;28;19955;-70
2021/06/24 09:44:25;;;;;;;;;;;16.70;99.90;;;;;;5053501;28;20403;-70
2021/06/24 09:46:52;;;;;;;;;;;16.60;99.90;;;;;;5053523;28;19909;-72
2021/06/24 09:49:45;;;;;;;;;;;16.60;99.90;;;;;;5053474;28;20345;-70
2021/06/24 09:52:19;;;;;;;;;;;16.60;99.90;;;;;;5030058;28;19909;-70
2021/06/24 09:54:47;;;;;;;;;;;16.50;99.90;;;;;;5053461;28;19909;-71
2021/06/24 09:57:24;;;;;;;;;;;16.50;99.90;;;;;;5053103;28;19917;-71
2021/06/24 09:59:51;;;;;;;;;;;16.40;99.90;;;;;;5053054;28;19908;-72
2021/06/24 10:02:19;;;;;;;;;;;16.50;99.90;;;;;;5053406;28;19913;-70
2021/06/24 10:04:47;;;;;;;;;;;16.50;99.90;;;;;;5053280;28;19909;-72
2021/06/24 10:07:15;;;;;;;;;;;16.50;99.90;;;;;;5053156;28;19908;-72
2021/06/24 10:09:42;;;;;;;;;;;16.50;99.90;;;;;;5053096;28;20360;-72
2021/06/24 10:12:16;;;;;;;;;;;16.40;99.90;;;;;;5052967;28;19909;-72
2021/06/24 10:14:44;;;;;;;;;;;16.40;99.90;;;;;;5053007;28;19963;-71
2021/06/24 10:17:10;;;;;;;;;;;16.30;99.90;;;;;;5052795;28;20367;-71
2021/06/24 10:19:39;;;;;;;;;;;16.30;99.90;;;;;;5052903;28;20379;-72
2021/06/24 10:22:09;;;;;;;;;;;16.30;99.90;;;;;;5053137;28;19916;-71
2021/06/24 10:24:56;;;;;;;;;;;16.30;99.90;;;;;;5052922;28;19909;-72
2021/06/24 10:27:24;;;;;;;;;;;16.30;99.90;;;;;;5042161;28;19909;-71
2021/06/24 10:29:52;;;;;;;;;;;16.40;99.90;;;;;;5052730;28;19997;-70
2021/06/24 10:32:33;;;;;;;;;;;16.40;99.90;;;;;;5053097;28;19995;-72
2021/06/24 10:35:02;;;;;;;;;;;16.40;99.90;;;;;;5053050;28;20359;-72
2021/06/24 10:37:29;;;;;;;;;;;16.50;99.90;;;;;;5052730;28;19923;-71
2021/06/24 10:40:00;;;;;;;;;;;16.50;99.90;;;;;;5052915;28;19909;-71
2021/06/24 10:42:32;;;;;;;;;;;16.50;99.90;;;;;;5052801;28;19912;-71
2021/06/24 10:45:00;;;;;;;;;;;16.50;99.90;;;;;;5054648;28;19912;-71
2021/06/24 10:47:30;;;;;;;;;;;16.50;99.90;;;;;;5056828;28;19913;-72
2021/06/24 10:50:23;;;;;;;;;;;16.60;99.90;;;;;;5057022;28;20286;-73
2021/06/24 10:52:50;;;;;;;;;;;16.60;99.90;;;;;;5033319;28;19916;-72
2021/06/24 10:55:34;;;;;;;;;;;16.60;99.90;;;;;;5055334;28;20389;-72
2021/06/24 10:58:02;;;;;;;;;;;16.50;99.90;;;;;;5071818;28;19932;-72
2021/06/24 11:00:36;;;;;;;;;;;16.40;99.90;;;;;;5074459;28;19912;-72
2021/06/24 11:03:04;;;;;;;;;;;16.30;99.90;;;;;;5074464;28;19908;-72
2021/06/24 11:05:41;;;;;;;;;;;16.20;99.90;;;;;;5074334;28;20347;-72
2021/06/24 11:08:12;;;;;;;;;;;16.20;99.90;;;;;;5074132;28;19919;-72
2021/06/24 11:10:51;;;;;;;;;;;16.20;99.90;;;;;;5073576;28;19954;-72
2021/06/24 11:13:40;;;;;;;;;;;16.20;99.90;;;;;;5073864;28;20017;-70
2021/06/24 11:16:10;;;;;;;;;;;16.20;99.90;;;;;;5072771;28;19912;-71
2021/06/24 11:18:36;;;;;;;;;;;16.20;99.90;;;;;;5074035;28;19947;-71
2021/06/24 11:21:04;;;;;;;;;;;16.20;99.90;;;;;;5074170;28;19916;-70
2021/06/24 11:23:31;;;;;;;;;;;16.20;99.90;;;;;;5073707;28;20322;-70
2021/06/24 11:26:07;;;;;;;;;;;16.10;99.90;;;;;;5072153;28;19919;-72
2021/06/24 11:28:43;;;;;;;;;;;16.10;99.90;;;;;;5074196;28;19913;-72
2021/06/24 11:31:12;;;;;;;;;;;16.10;99.90;;;;;;5074040;28;20418;-70
2021/06/24 11:33:52;;;;;;;;;;;16.00;99.90;;;;;;5073843;28;19912;-73
2021/06/24 11:36:20;;;;;;;;;;;16.00;99.90;;;;;;5073627;28;19916;-72
2021/06/24 11:38:51;;;;;;;;;;;16.00;99.90;;;;;;5072557;28;19908;-73
2021/06/24 11:41:19;;;;;;;;;;;16.00;99.90;;;;;;5073205;28;19917;-73
2021/06/24 11:44:05;;;;;;;;;;;16.10;99.90;;;;;;5073416;28;20263;-72
2021/06/24 11:46:34;;;;;;;;;;;16.00;99.90;;;;;;5073320;28;20314;-73
2021/06/24 12:05:29;;;;;;;;;;;15.80;99.90;;;;;;5053583;28;19915;-73
2021/06/24 12:07:56;;;;;;;;;;;15.80;99.90;;;;;;5053365;28;19913;-70
2021/06/24 12:10:23;;;;;;;;;;;15.90;99.90;;;;;;5052667;28;19908;-72
2021/06/24 12:12:50;;;;;;;;;;;15.80;99.90;;;;;;5052963;28;19921;-72
2021/06/24 12:15:17;;;;;;;;;;;15.80;99.90;;;;;;5052877;28;19909;-72
2021/06/24 12:17:44;;;;;;;;;;;15.80;99.90;;;;;;5052824;28;19916;-71
2021/06/24 12:20:29;;;;;;;;;;;15.80;99.90;;;;;;5063451;28;19974;-71
2021/06/24 12:23:02;;;;;;;;;;;15.80;99.90;;;;;;5061643;28;19932;-70
2021/06/24 12:25:32;;;;;;;;;;;15.80;99.90;;;;;;5061090;28;19924;-70
2021/06/24 12:28:00;;;;;;;;;;;15.80;99.90;;;;;;5061567;28;19909;-72
2021/06/24 12:30:33;;;;;;;;;;;15.80;99.90;;;;;;5061310;28;20132;-72
2021/06/24 12:33:02;;;;;;;;;;;15.80;99.90;;;;;;5060723;28;20427;-72
2021/06/24 12:35:39;;;;;;;;;;;15.80;99.90;;;;;;5052874;28;19909;-72
2021/06/24 12:38:10;;;;;;;;;;;15.80;99.90;;;;;;5052843;28;19917;-71
2021/06/24 12:40:36;;;;;;;;;;;15.80;99.90;;;;;;5051807;28;19913;-69
2021/06/24 12:43:03;;;;;;;;;;;15.80;99.90;;;;;;5052781;28;19909;-70
2021/06/24 12:45:31;;;;;;;;;;;15.80;99.90;;;;;;5052558;28;19909;-69
2021/06/24 12:47:59;;;;;;;;;;;15.90;99.90;;;;;;5052794;28;19963;-70
2021/06/24 12:50:27;;;;;;;;;;;15.90;99.90;;;;;;5052622;28;19913;-70
2021/06/24 12:52:56;;;;;;;;;;;15.90;99.90;;;;;;5052323;28;19948;-72
2021/06/24 12:55:37;;;;;;;;;;;15.90;99.90;;;;;;5051898;28;19920;-72
2021/06/24 12:58:14;;;;;;;;;;;15.90;99.90;;;;;;5052187;28;19974;-73
2021/06/24 13:00:50;;;;;;;;;;;15.90;99.90;;;;;;5052361;28;19984;-72
2021/06/24 13:03:17;;;;;;;;;;;15.90;99.90;;;;;;5052485;28;19912;-72
2021/06/24 13:05:43;;;;;;;;;;;15.90;99.90;;;;;;5051723;28;20290;-72
2021/06/24 13:08:10;;;;;;;;;;;15.90;99.90;;;;;;5051049;28;19917;-70
2021/06/24 13:10:44;;;;;;;;;;;15.90;99.90;;;;;;5051852;28;20323;-72
2021/06/24 13:13:25;;;;;;;;;;;15.90;99.90;;;;;;5051982;28;20465;-72
2021/06/24 13:15:52;;;;;;;;;;;15.90;99.90;;;;;;5051819;28;19917;-70
2021/06/24 13:18:19;;;;;;;;;;;15.90;99.90;;;;;;5052061;28;19944;-72
2021/06/24 13:20:56;;;;;;;;;;;15.80;99.90;;;;;;5051676;28;20046;-72
2021/06/24 13:23:32;;;;;;;;;;;15.90;99.90;;;;;;5051894;28;19920;-72
2021/06/24 13:26:18;;;;;;;;;;;15.90;99.90;;;;;;5051854;28;19913;-72
2021/06/24 13:28:53;;;;;;;;;;;15.90;99.90;;;;;;5051620;28;19909;-73
2021/06/24 13:31:25;;;;;;;;;;;15.80;99.90;;;;;;5051793;28;19916;-73
2021/06/24 13:33:58;;;;;;;;;;;15.90;99.90;;;;;;5051395;28;19939;-73
2021/06/24 13:36:26;;;;;;;;;;;15.90;99.90;;;;;;5051658;28;19963;-72
2021/06/24 13:38:56;;;;;;;;;;;15.90;99.90;;;;;;5051535;28;20422;-73
2021/06/24 13:41:24;;;;;;;;;;;15.90;99.90;;;;;;5051375;28;19919;-73
2021/06/24 13:44:06;;;;;;;;;;;15.80;99.90;;;;;;5051351;28;19913;-73
2021/06/24 13:46:33;;;;;;;;;;;15.90;99.90;;;;;;5051328;28;19909;-71
2021/06/24 13:49:00;;;;;;;;;;;15.90;99.90;;;;;;5050173;28;20337;-72
2021/06/24 13:51:27;;;;;;;;;;;15.90;99.90;;;;;;5051389;28;19916;-72
2021/06/24 13:54:04;;;;;;;;;;;15.80;99.90;;;;;;5051053;28;20000;-72
2021/06/24 13:56:31;;;;;;;;;;;15.80;99.90;;;;;;5051185;28;19916;-71
2021/06/24 13:58:57;;;;;;;;;;;15.70;99.90;;;;;;5050996;28;20250;-72
2021/06/24 14:01:25;;;;;;;;;;;15.70;99.90;;;;;;5051394;28;19918;-73
2021/06/24 14:03:52;;;;;;;;;;;15.70;99.90;;;;;;5050938;28;19909;-72
2021/06/24 14:06:19;;;;;;;;;;;15.70;99.90;;;;;;5051180;28;19909;-73
2021/06/24 14:08:46;;;;;;;;;;;15.80;99.90;;;;;;5051346;28;20272;-72
2021/06/24 14:11:15;;;;;;;;;;;15.80;99.90;;;;;;5050900;28;19932;-71
2021/06/24 14:13:42;;;;;;;;;;;15.80;99.90;;;;;;5049529;28;19936;-73
2021/06/24 14:16:17;;;;;;;;;;;15.70;99.90;;;;;;5050972;28;19920;-72
2021/06/24 14:18:46;;;;;;;;;;;15.80;99.90;;;;;;5049920;28;19913;-73
2021/06/24 14:21:14;;;;;;;;;;;15.80;99.90;;;;;;5051096;28;19916;-72
2021/06/24 14:23:41;;;;;;;;;;;15.80;99.90;;;;;;5050835;28;19908;-72
2021/06/24 14:26:08;;;;;;;;;;;15.70;99.90;;;;;;5050966;28;20641;-72
2021/06/24 14:28:35;;;;;;;;;;;15.80;99.90;;;;;;5049787;28;20000;-70
2021/06/24 14:31:03;;;;;;;;;;;15.80;99.90;;;;;;5050984;28;20509;-70
2021/06/24 14:33:30;;;;;;;;;;;15.70;99.90;;;;;;5050761;28;19913;-71
2021/06/24 14:35:57;;;;;;;;;;;15.70;99.90;;;;;;5051017;28;19939;-70
2021/06/24 14:38:24;;;;;;;;;;;15.70;99.90;;;;;;5050691;28;19923;-70
2021/06/24 14:40:51;;;;;;;;;;;15.70;99.90;;;;;;5050596;28;20318;-71